Minerva Zen — SVBN3 — position and weather

sailwx.info

Track history (hours):
 
Tides and Currents Weather Stations Pressure Air Temp Water Temp Dewpoint Dewpoint Depression Visibility Wind Speed Wind Dir Waves Ship Positions

Minerva Zen

Last reported at 2016-May-29 00:06 UTC. Time now 2016-May-30 06:58 UTC.
Position N 32°48' E 012°41'.

Length 183 m; draft 7.5 m.

Type: Ship. MMSI: 241190000.

Date/timePositionNaut miles runAvg speedWind from/ knotsBaromVisibWave heightAir tempDewpointWater temp
2016-May-29 00:06N 32°48' E 012°41'0 0.1
2016-May-28 23:24N 32°48' E 012°41'0 0.0
2016-May-28 15:33N 32°48' E 012°41'1 0.3
2016-May-28 11:27N 32°49' E 012°40'0 0.1
2016-May-28 10:33N 32°49' E 012°40'0 0.0
2016-May-28 09:33N 32°49' E 012°40'0 0.0
2016-May-27 20:27N 32°49' E 012°40'0 0.0
2016-May-27 19:30N 32°49' E 012°40'0 0.0
2016-May-27 18:27N 32°49' E 012°40'0 0.0
2016-May-27 17:33N 32°49' E 012°40'0 0.0
2016-May-27 16:33N 32°49' E 012°40'0 0.0
2016-May-27 15:33N 32°49' E 012°40'0 0.0
2016-May-27 14:33N 32°49' E 012°40'0 0.0
2016-May-27 13:33N 32°49' E 012°40'0 0.0
2016-May-27 08:30N 32°49' E 012°40'0 0.0
2016-May-27 07:34N 32°49' E 012°40'0 0.0
2016-May-27 06:33N 32°49' E 012°40'0 0.0
2016-May-27 05:33N 32°49' E 012°40'0 0.0
2016-May-26 21:30N 32°49' E 012°40'2 2.3
2016-May-26 20:33N 32°51' E 012°39'9 9.5
2016-May-26 19:33N 32°59' E 012°34'1212.4
2016-May-26 18:33N 33°12' E 012°31'8 7.5
2016-May-26 17:33N 33°19' E 012°32'3 2.8
2016-May-26 16:33N 33°17' E 012°35'3 3.3
2016-May-26 15:33N 33°16' E 012°39'1 1.0
2016-May-26 14:33N 33°17' E 012°39'1 1.5
2016-May-26 13:33N 33°18' E 012°41'2 1.8
2016-May-26 12:33N 33°17' E 012°43'5 4.8
2016-May-26 11:33N 33°16' E 012°38'6 4.9
2016-May-26 10:19N 33°11' E 012°42'1 0.8
2016-May-26 09:28N 33°10' E 012°42'12 2.9
2016-May-26 05:27N 33°13' E 012°55'8 8.4
2016-May-26 04:33N 33°20' E 012°60'8 8.3
2016-May-26 03:33N 33°27' E 013°04'8 8.1
2016-May-26 02:30N 33°34' E 013°09'7 7.7
2016-May-26 01:33N 33°41' E 013°13'8 7.5
2016-May-26 00:33N 33°48' E 013°18'7 7.5
2016-May-25 23:33N 33°54' E 013°22'8 7.5
2016-May-25 22:33N 34°01' E 013°26'8 7.7
2016-May-25 21:33N 34°07' E 013°31'8 7.8
2016-May-25 20:33N 34°14' E 013°35'8 7.9
2016-May-25 19:33N 34°21' E 013°40'8 8.0
2016-May-25 18:33N 34°28' E 013°45'8 7.9
2016-May-25 17:33N 34°35' E 013°49'8 8.0
2016-May-25 16:33N 34°42' E 013°54'8 7.9
2016-May-25 15:33N 34°49' E 013°58'8 7.7
2016-May-25 14:33N 34°56' E 014°03'8 7.6
2016-May-25 13:33N 35°03' E 014°07'8 8.1
2016-May-25 12:33N 35°10' E 014°12'8 8.6
2016-May-25 11:33N 35°17' E 014°17'9 8.6
2016-May-25 10:33N 35°25' E 014°22'9 8.6
2016-May-25 09:33N 35°32' E 014°27'11 8.3
2016-May-25 08:11N 35°42' E 014°34'5 8.3
2016-May-25 07:33N 35°47' E 014°36'2 2.4
2016-May-25 06:33N 35°49' E 014°36'0 0.1
2016-May-25 05:33N 35°49' E 014°36'0 0.1
2016-May-25 04:33N 35°49' E 014°36'0 0.0
2016-May-25 03:33N 35°49' E 014°36'0 0.0
2016-May-25 02:33N 35°49' E 014°36'0 0.1
2016-May-25 01:33N 35°49' E 014°36'0 0.0
2016-May-25 00:33N 35°49' E 014°36'0 0.0
2016-May-24 23:33N 35°49' E 014°36'0 0.0
2016-May-24 22:33N 35°49' E 014°36'0 0.0
2016-May-24 21:33N 35°49' E 014°36'0 0.0
2016-May-24 20:33N 35°49' E 014°36'0 0.1
2016-May-24 19:33N 35°49' E 014°36'0 0.0
2016-May-24 18:33N 35°49' E 014°36'4 4.1
2016-May-24 17:33N 35°47' E 014°41'1111.1
2016-May-24 16:33N 35°45' E 014°54'1413.9
2016-May-24 15:33N 35°49' E 015°10'1212.0
2016-May-24 14:33N 35°48' E 015°25'1313.5
2016-May-24 13:33N 35°45' E 015°41'1413.4
2016-May-24 12:33N 35°41' E 015°57'1313.6
2016-May-24 11:33N 35°38' E 016°13'1413.7
2016-May-24 10:33N 35°34' E 016°30'1413.7
2016-May-24 09:33N 35°31' E 016°46'2713.7
2016-May-24 07:33N 35°24' E 017°18'1313.4
2016-May-24 06:33N 35°20' E 017°34'1313.4
2016-May-24 05:33N 35°17' E 017°50'9613.3
2016-May-23 22:20N 34°52' E 019°43'1114.0
2016-May-23 21:33N 34°49' E 019°56'1413.9
2016-May-23 20:33N 34°45' E 020°12'1413.6
2016-May-23 19:33N 34°42' E 020°28'51812.9
2016-May-22 03:19N 32°30' E 030°30'1013.4
2016-May-22 02:33N 32°27' E 030°42'1313.4
2016-May-22 01:33N 32°24' E 030°57'1413.2
2016-May-22 00:30N 32°18' E 031°12'1313.9
2016-May-21 23:33N 32°09' E 031°24'1513.9
2016-May-21 22:29N 31°60' E 031°37'1413.7
2016-May-21 21:28N 31°51' E 031°50'1413.7
2016-May-21 20:25N 31°42' E 032°03'1413.7
2016-May-21 19:26N 31°32' E 032°14'1112.9
2016-May-21 18:34N 31°24' E 032°23'1111.0
2016-May-21 17:33N 31°13' E 032°21'7 7.4
2016-May-21 16:34N 31°06' E 032°18'9 8.9
2016-May-21 15:33N 30°57' E 032°19'10 9.6
2016-May-21 14:29N 30°47' E 032°20'48 3.1
2016-May-20 23:13N 30°01' E 032°35'6 9.4
2016-May-20 22:33N 29°55' E 032°33'2 1.4
2016-May-20 21:19N 29°54' E 032°31'  
Track history (hours):
 
Tides and Currents Weather Stations Pressure Air Temp Water Temp Dewpoint Dewpoint Depression Visibility Wind Speed Wind Dir Waves Ship Positions

Minerva Zen

Last reported at 2016-May-29 00:06 UTC. Time now 2016-May-30 06:58 UTC.
Position N 32°48' E 012°41'.

Length 183 m; draft 7.5 m.

Type: Ship. MMSI: 241190000.

Date/timePositionNaut miles runAvg speedWind from/ knotsBaromVisibWave heightAir tempDewpointWater temp
2016-May-29 00:06N 32°48' E 012°41'0 0.1
2016-May-28 23:24N 32°48' E 012°41'0 0.0
2016-May-28 15:33N 32°48' E 012°41'1 0.3
2016-May-28 11:27N 32°49' E 012°40'0 0.1
2016-May-28 10:33N 32°49' E 012°40'0 0.0
2016-May-28 09:33N 32°49' E 012°40'0 0.0
2016-May-27 20:27N 32°49' E 012°40'0 0.0
2016-May-27 19:30N 32°49' E 012°40'0 0.0
2016-May-27 18:27N 32°49' E 012°40'0 0.0
2016-May-27 17:33N 32°49' E 012°40'0 0.0
2016-May-27 16:33N 32°49' E 012°40'0 0.0
2016-May-27 15:33N 32°49' E 012°40'0 0.0
2016-May-27 14:33N 32°49' E 012°40'0 0.0
2016-May-27 13:33N 32°49' E 012°40'0 0.0
2016-May-27 08:30N 32°49' E 012°40'0 0.0
2016-May-27 07:34N 32°49' E 012°40'0 0.0
2016-May-27 06:33N 32°49' E 012°40'0 0.0
2016-May-27 05:33N 32°49' E 012°40'0 0.0
2016-May-26 21:30N 32°49' E 012°40'2 2.3
2016-May-26 20:33N 32°51' E 012°39'9 9.5
2016-May-26 19:33N 32°59' E 012°34'1212.4
2016-May-26 18:33N 33°12' E 012°31'8 7.5
2016-May-26 17:33N 33°19' E 012°32'3 2.8
2016-May-26 16:33N 33°17' E 012°35'3 3.3
2016-May-26 15:33N 33°16' E 012°39'1 1.0
2016-May-26 14:33N 33°17' E 012°39'1 1.5
2016-May-26 13:33N 33°18' E 012°41'2 1.8
2016-May-26 12:33N 33°17' E 012°43'5 4.8
2016-May-26 11:33N 33°16' E 012°38'6 4.9
2016-May-26 10:19N 33°11' E 012°42'1 0.8
2016-May-26 09:28N 33°10' E 012°42'12 2.9
2016-May-26 05:27N 33°13' E 012°55'8 8.4
2016-May-26 04:33N 33°20' E 012°60'8 8.3
2016-May-26 03:33N 33°27' E 013°04'8 8.1
2016-May-26 02:30N 33°34' E 013°09'7 7.7
2016-May-26 01:33N 33°41' E 013°13'8 7.5
2016-May-26 00:33N 33°48' E 013°18'7 7.5
2016-May-25 23:33N 33°54' E 013°22'8 7.5
2016-May-25 22:33N 34°01' E 013°26'8 7.7
2016-May-25 21:33N 34°07' E 013°31'8 7.8
2016-May-25 20:33N 34°14' E 013°35'8 7.9
2016-May-25 19:33N 34°21' E 013°40'8 8.0
2016-May-25 18:33N 34°28' E 013°45'8 7.9
2016-May-25 17:33N 34°35' E 013°49'8 8.0
2016-May-25 16:33N 34°42' E 013°54'8 7.9
2016-May-25 15:33N 34°49' E 013°58'8 7.7
2016-May-25 14:33N 34°56' E 014°03'8 7.6
2016-May-25 13:33N 35°03' E 014°07'8 8.1
2016-May-25 12:33N 35°10' E 014°12'8 8.6
2016-May-25 11:33N 35°17' E 014°17'9 8.6
2016-May-25 10:33N 35°25' E 014°22'9 8.6
2016-May-25 09:33N 35°32' E 014°27'11 8.3
2016-May-25 08:11N 35°42' E 014°34'5 8.3
2016-May-25 07:33N 35°47' E 014°36'2 2.4
2016-May-25 06:33N 35°49' E 014°36'0 0.1
2016-May-25 05:33N 35°49' E 014°36'0 0.1
2016-May-25 04:33N 35°49' E 014°36'0 0.0
2016-May-25 03:33N 35°49' E 014°36'0 0.0
2016-May-25 02:33N 35°49' E 014°36'0 0.1
2016-May-25 01:33N 35°49' E 014°36'0 0.0
2016-May-25 00:33N 35°49' E 014°36'0 0.0
2016-May-24 23:33N 35°49' E 014°36'0 0.0
2016-May-24 22:33N 35°49' E 014°36'0 0.0
2016-May-24 21:33N 35°49' E 014°36'0 0.0
2016-May-24 20:33N 35°49' E 014°36'0 0.1
2016-May-24 19:33N 35°49' E 014°36'0 0.0
2016-May-24 18:33N 35°49' E 014°36'4 4.1
2016-May-24 17:33N 35°47' E 014°41'1111.1
2016-May-24 16:33N 35°45' E 014°54'1413.9
2016-May-24 15:33N 35°49' E 015°10'1212.0
2016-May-24 14:33N 35°48' E 015°25'1313.5
2016-May-24 13:33N 35°45' E 015°41'1413.4
2016-May-24 12:33N 35°41' E 015°57'1313.6
2016-May-24 11:33N 35°38' E 016°13'1413.7
2016-May-24 10:33N 35°34' E 016°30'1413.7
2016-May-24 09:33N 35°31' E 016°46'2713.7
2016-May-24 07:33N 35°24' E 017°18'1313.4
2016-May-24 06:33N 35°20' E 017°34'1313.4
2016-May-24 05:33N 35°17' E 017°50'9613.3
2016-May-23 22:20N 34°52' E 019°43'1114.0
2016-May-23 21:33N 34°49' E 019°56'1413.9
2016-May-23 20:33N 34°45' E 020°12'1413.6
2016-May-23 19:33N 34°42' E 020°28'51812.9
2016-May-22 03:19N 32°30' E 030°30'1013.4
2016-May-22 02:33N 32°27' E 030°42'1313.4
2016-May-22 01:33N 32°24' E 030°57'1413.2
2016-May-22 00:30N 32°18' E 031°12'1313.9
2016-May-21 23:33N 32°09' E 031°24'1513.9
2016-May-21 22:29N 31°60' E 031°37'1413.7
2016-May-21 21:28N 31°51' E 031°50'1413.7
2016-May-21 20:25N 31°42' E 032°03'1413.7
2016-May-21 19:26N 31°32' E 032°14'1112.9
2016-May-21 18:34N 31°24' E 032°23'1111.0
2016-May-21 17:33N 31°13' E 032°21'7 7.4
2016-May-21 16:34N 31°06' E 032°18'9 8.9
2016-May-21 15:33N 30°57' E 032°19'10 9.6
2016-May-21 14:29N 30°47' E 032°20'48 3.1
2016-May-20 23:13N 30°01' E 032°35'6 9.4
2016-May-20 22:33N 29°55' E 032°33'2 1.4
2016-May-20 21:19N 29°54' E 032°31'  

Dump ship's entire track history